Etusivu
METAR-TAF:

METAR-TAF

Lentoasemat :

Aruba, Aruba

Leveyspiiri: 12-30N, Pituuspiiri: 070-01W, korkeus merenpinnasta: 18 m

Tämänhetkinen sää

Tämä raportti tehtiin 52 minuuttia sitten, kello 20.00 UTC
Tuuli 18 kn idästä
Lämpötila 32°C
Kosteus 67%
Ilmanpaine 1010 hPa
Näkyvyys 10 km tai enemmän
Hajanaisia pilviä 2100 ft:n korkeudessa

METAR: TNCA 212000Z 09018KT 9999 SCT021 32/25 Q1010 NOSIG

Aika: 16:52 (20:52 UTC)

Sääennuste

Tämä raportti tehtiin 3 tuntia ja 52 minuuttia sitten, kello 17.00 UTC
Ennuste voimassa 21. päivästä klo 18 UTC - 22. päivään klo 18 UTC
Tuuli 20 kn idästä
Näkyvyys 10 km tai enemmän
Hajanaisia pilviä 2500 ft:n korkeudessa

TAF: TNCA 211700Z 2118/2218 10020KT 9999 SCT025

Säähavainnot ja -ennusteet yli 4000 lentoasemalta (METAR- ja TAF-raportit).

Käytössä olevat sääasemat on merkitty karttaan keltaisilla ja punaisilla pisteillä.

Aseta hiiri pisteen päälle nähdäksesi sääaseman nimen.

Klikkaa sitten nähdäksesi säähavainnot ja -ennusteet.

Kartan vaihtaminen: klikkaa mustalla rastilla varustettuja vihreitä pisteitä, niin voit zoomata sisään; viivalla varustettua vihreää pistettä, niin voit zoomata ulos tai vihreitä nuolia, niin pääset viereisille kartoille.


METAR-TAF: